Time;durP1;ratioP1;P1;durP2;ratioP2;P2;SDS_P1;SDS_P2;PMS_P1;PMS_P2;Temp;Humidity;BMP_temperature;BMP_pressure;BME280_temperature;BME280_humidity;BME280_pressure;Samples;Min_cycle;Max_cycle;Signal;HPM_P1;HPM_P2
2022/09/18 00:04:13;;;;;;;8.40;3.80;;;;;;;10.89;79.12;98586.27;213446;1276;139568;-66
2022/09/18 00:09:15;;;;;;;7.60;3.40;;;;;;;10.85;79.13;98585.52;214340;1276;142155;-64
2022/09/18 00:14:21;;;;;;;7.70;4.00;;;;;;;10.85;79.11;98589.35;213632;1276;140588;-65
2022/09/18 00:19:24;;;;;;;7.50;3.30;;;;;;;10.84;79.29;98586.68;213302;1276;139968;-64
2022/09/18 00:24:26;;;;;;;11.10;4.70;;;;;;;10.80;79.16;98592.80;214069;1276;140054;-65
2022/09/18 00:29:30;;;;;;;8.50;2.90;;;;;;;10.78;79.19;98593.06;213586;1276;141718;-67
2022/09/18 00:34:33;;;;;;;5.40;2.90;;;;;;;10.79;79.11;98589.81;214530;1276;140043;-66
2022/09/18 00:39:36;;;;;;;4.20;2.40;;;;;;;10.77;79.11;98599.84;214479;1276;140193;-66
2022/09/18 00:44:47;;;;;;;5.80;2.50;;;;;;;10.76;79.18;98603.94;213061;1276;140575;-65
2022/09/18 00:49:56;;;;;;;10.90;3.10;;;;;;;10.75;79.08;98610.86;214977;1276;139546;-65
2022/09/18 00:55:05;;;;;;;8.10;3.00;;;;;;;10.75;78.97;98614.75;214861;1276;141253;-65
2022/09/18 01:00:13;;;;;;;6.10;2.60;;;;;;;10.75;78.59;98611.17;214469;1276;141507;-70
2022/09/18 01:05:42;;;;;;;7.20;2.50;;;;;;;10.73;78.49;98605.48;215538;1275;139412;-70
2022/09/18 01:10:54;;;;;;;3.90;1.90;;;;;;;10.71;78.31;98607.80;215366;1276;140027;-70
2022/09/18 01:16:24;;;;;;;5.20;3.10;;;;;;;10.73;78.28;98609.20;215680;1276;140648;-70
2022/09/18 01:21:53;;;;;;;8.90;2.80;;;;;;;10.74;77.98;98609.27;215810;1276;139951;-70
2022/09/18 01:27:09;;;;;;;3.30;2.10;;;;;;;10.68;77.44;98616.89;215623;1276;151951;-69
2022/09/18 01:32:46;;;;;;;2.50;1.50;;;;;;;10.69;77.32;98616.15;213216;1276;141391;-68
2022/09/18 01:38:03;;;;;;;4.10;1.50;;;;;;;10.65;77.18;98619.75;214859;1276;141729;-68
2022/09/18 01:43:09;;;;;;;1.80;1.50;;;;;;;10.62;76.98;98620.11;214028;1276;162282;-68
2022/09/18 01:48:24;;;;;;;3.00;1.60;;;;;;;10.56;76.42;98621.38;213015;1276;142475;-68
2022/09/18 01:53:33;;;;;;;2.40;1.00;;;;;;;10.46;76.20;98620.41;213040;1276;141287;-65
2022/09/18 01:58:37;;;;;;;1.10;1.00;;;;;;;10.40;76.14;98624.61;213274;1276;139833;-66
2022/09/18 02:03:45;;;;;;;2.20;0.80;;;;;;;10.32;75.78;98620.16;213785;1276;141983;-66
2022/09/18 02:08:52;;;;;;;1.30;0.80;;;;;;;10.27;75.70;98617.33;213600;1276;140174;-65
2022/09/18 02:14:13;;;;;;;2.80;1.20;;;;;;;10.20;75.67;98614.87;213564;1276;140014;-66
2022/09/18 02:19:26;;;;;;;5.60;1.50;;;;;;;10.09;75.35;98616.14;214155;1276;139818;-67
2022/09/18 02:24:36;;;;;;;2.20;1.70;;;;;;;10.04;75.25;98617.08;214313;1273;139600;-66
2022/09/18 02:29:41;;;;;;;3.70;1.30;;;;;;;9.99;75.19;98615.92;213653;1276;226664;-65
2022/09/18 02:34:44;;;;;;;6.40;1.90;;;;;;;9.92;75.19;98612.41;214234;1276;140388;-65
2022/09/18 02:40:38;;;;;;;3.30;1.00;;;;;;;9.85;74.97;98608.38;214768;1276;141965;-67
2022/09/18 02:45:53;;;;;;;2.90;0.80;;;;;;;9.81;75.01;98607.88;213372;1276;140664;-66
2022/09/18 02:51:06;;;;;;;2.80;0.90;;;;;;;9.72;74.69;98602.77;213481;1276;140548;-67
2022/09/18 02:56:17;;;;;;;4.50;1.80;;;;;;;9.62;74.79;98597.12;214854;1276;141236;-67
2022/09/18 03:01:24;;;;;;;4.70;1.20;;;;;;;9.57;74.85;98590.42;216171;1276;142054;-66
2022/09/18 03:06:26;;;;;;;2.40;1.20;;;;;;;9.54;74.92;98586.04;215621;1276;141881;-66
2022/09/18 03:11:29;;;;;;;12.10;1.40;;;;;;;9.48;74.81;98589.03;215997;1276;140066;-68
2022/09/18 03:16:31;;;;;;;2.40;1.60;;;;;;;9.40;74.72;98587.98;215551;1276;142502;-63
2022/09/18 03:21:34;;;;;;;7.40;1.60;;;;;;;9.29;74.72;98594.80;213246;1276;140997;-65
2022/09/18 03:26:37;;;;;;;3.80;1.40;;;;;;;9.24;74.83;98594.80;213413;1276;141365;-65
2022/09/18 03:31:40;;;;;;;7.20;2.00;;;;;;;9.20;75.14;98599.11;213498;1276;141441;-69
2022/09/18 03:36:43;;;;;;;2.20;1.00;;;;;;;9.10;74.99;98598.74;213968;1276;140671;-69
2022/09/18 03:41:45;;;;;;;6.70;1.40;;;;;;;9.04;75.28;98600.18;213239;1276;141346;-69
2022/09/18 03:46:48;;;;;;;3.00;1.70;;;;;;;9.00;75.46;98601.41;213312;1276;140724;-69
2022/09/18 03:51:51;;;;;;;5.10;2.30;;;;;;;8.94;75.42;98600.44;214118;1276;142527;-70
2022/09/18 03:56:54;;;;;;;2.90;1.50;;;;;;;8.86;75.41;98597.77;213386;1276;142893;-67
2022/09/18 04:01:57;;;;;;;10.20;3.80;;;;;;;8.80;75.62;98593.04;213780;1276;141112;-67
2022/09/18 04:07:00;;;;;;;5.80;1.30;;;;;;;8.81;76.05;98597.35;213704;1276;139971;-67
2022/09/18 04:12:03;;;;;;;7.80;1.40;;;;;;;8.82;75.84;98597.58;213321;1276;141514;-67
2022/09/18 04:17:05;;;;;;;2.50;1.80;;;;;;;8.78;75.86;98600.98;213416;1276;140950;-67
2022/09/18 04:22:07;;;;;;;4.10;1.90;;;;;;;8.73;76.10;98600.77;213308;1276;140314;-67
2022/09/18 04:27:10;;;;;;;6.00;1.60;;;;;;;8.67;76.30;98607.55;213041;1276;141612;-67
2022/09/18 04:32:12;;;;;;;3.40;2.00;;;;;;;8.63;76.43;98606.30;214005;1276;140587;-65
2022/09/18 04:37:15;;;;;;;3.60;2.30;;;;;;;8.59;76.36;98607.52;214691;1277;140266;-65
2022/09/18 04:42:17;;;;;;;7.60;2.90;;;;;;;8.59;76.72;98609.16;213978;1276;141870;-65
2022/09/18 04:47:20;;;;;;;3.90;2.80;;;;;;;8.56;76.67;98608.19;213868;1276;140238;-66
2022/09/18 04:52:22;;;;;;;6.90;3.40;;;;;;;8.54;77.09;98608.54;215000;1276;141182;-65
2022/09/18 04:57:25;;;;;;;8.70;4.00;;;;;;;8.52;76.99;98607.45;214169;1275;141618;-66
2022/09/18 05:02:32;;;;;;;4.00;3.10;;;;;;;8.51;77.23;98611.39;215938;1276;141400;-67
2022/09/18 05:07:35;;;;;;;7.30;3.30;;;;;;;8.51;77.18;98614.78;215865;1276;140948;-66
2022/09/18 05:12:43;;;;;;;3.80;3.00;;;;;;;8.57;77.48;98617.17;213286;1276;141403;-64
2022/09/18 05:17:47;;;;;;;7.00;3.60;;;;;;;8.57;77.22;98619.55;214665;1277;141367;-63
2022/09/18 05:22:50;;;;;;;7.70;2.70;;;;;;;8.59;77.16;98621.28;214309;1277;140863;-65
2022/09/18 05:28:00;;;;;;;11.30;3.50;;;;;;;8.61;77.31;98625.06;214017;1276;139771;-65
2022/09/18 05:33:06;;;;;;;3.80;2.80;;;;;;;8.64;77.43;98626.59;214254;1276;141409;-65
2022/09/18 05:38:10;;;;;;;3.60;3.20;;;;;;;8.64;77.71;98628.94;214795;1276;140578;-65
2022/09/18 05:43:13;;;;;;;4.30;3.10;;;;;;;8.75;77.72;98625.46;213772;1276;139984;-65
2022/09/18 05:48:15;;;;;;;4.00;3.10;;;;;;;8.87;77.79;98623.08;212974;1276;140781;-66
2022/09/18 05:53:19;;;;;;;3.20;3.00;;;;;;;8.95;77.68;98625.11;213272;1276;139706;-64
2022/09/18 05:58:22;;;;;;;7.10;4.20;;;;;;;8.98;77.74;98627.60;212961;1276;140581;-64
2022/09/18 06:03:24;;;;;;;5.30;3.00;;;;;;;9.06;77.76;98625.98;214324;1276;140414;-65
2022/09/18 06:08:28;;;;;;;6.60;2.70;;;;;;;9.13;77.66;98624.71;213295;1276;142200;-63
2022/09/18 06:13:30;;;;;;;3.60;2.90;;;;;;;9.23;77.70;98623.39;213879;1276;140763;-65
2022/09/18 06:18:32;;;;;;;6.90;3.60;;;;;;;9.24;77.79;98633.46;213915;1276;140021;-67
2022/09/18 06:23:34;;;;;;;6.10;3.10;;;;;;;9.28;77.76;98635.41;214397;1277;139647;-66
2022/09/18 06:28:36;;;;;;;8.30;3.80;;;;;;;9.35;77.95;98636.80;213787;1276;163927;-66
2022/09/18 06:33:38;;;;;;;6.30;3.10;;;;;;;9.45;78.06;98643.20;213049;1276;141703;-67
2022/09/18 06:38:41;;;;;;;3.10;2.90;;;;;;;9.54;77.91;98648.55;213945;1276;142171;-67
2022/09/18 06:43:43;;;;;;;3.40;3.10;;;;;;;9.59;77.99;98651.47;214490;1276;142429;-70
2022/09/18 06:48:47;;;;;;;6.50;3.80;;;;;;;9.65;77.74;98653.44;212604;1276;140556;-67
2022/09/18 06:53:50;;;;;;;16.80;4.70;;;;;;;9.77;77.86;98651.02;213785;1276;143328;-66
2022/09/18 06:58:52;;;;;;;6.60;5.90;;;;;;;9.89;77.65;98651.52;215073;1276;140480;-67
2022/09/18 07:03:54;;;;;;;5.50;3.50;;;;;;;10.05;77.72;98655.73;215731;1276;141074;-70
2022/09/18 07:08:57;;;;;;;3.70;3.50;;;;;;;10.37;77.81;98657.30;213516;1276;141871;-68
2022/09/18 07:13:59;;;;;;;5.40;3.30;;;;;;;10.80;77.53;98652.40;214445;1276;141755;-69
2022/09/18 07:19:02;;;;;;;3.30;3.10;;;;;;;11.02;76.72;98656.14;213731;1277;141527;-66
2022/09/18 07:24:05;;;;;;;4.60;3.60;;;;;;;10.98;76.65;98659.50;214230;1277;140002;-69
2022/09/18 07:29:08;;;;;;;5.50;3.70;;;;;;;10.97;76.34;98657.70;214486;1277;141922;-66
2022/09/18 07:34:11;;;;;;;5.20;4.40;;;;;;;10.89;76.12;98658.79;213964;1276;221732;-64
2022/09/18 07:39:13;;;;;;;4.70;4.30;;;;;;;10.93;76.30;98655.86;214256;1277;139879;-65
2022/09/18 07:44:15;;;;;;;4.80;4.20;;;;;;;10.99;76.33;98655.13;212805;1277;142335;-66
2022/09/18 07:49:18;;;;;;;4.20;3.90;;;;;;;11.19;76.47;98643.85;214050;1277;140436;-68
2022/09/18 07:54:20;;;;;;;5.10;4.30;;;;;;;11.48;76.61;98648.52;213273;1277;140244;-68
2022/09/18 07:59:22;;;;;;;4.60;4.20;;;;;;;11.61;75.91;98652.95;212767;1277;140173;-68
2022/09/18 08:04:25;;;;;;;3.70;3.40;;;;;;;11.72;75.55;98654.59;213256;1277;139994;-65
2022/09/18 08:09:28;;;;;;;4.20;3.90;;;;;;;11.95;75.26;98654.95;213894;1277;140044;-65
2022/09/18 08:14:30;;;;;;;3.00;2.20;;;;;;;12.04;74.35;98656.45;213781;1277;139896;-66
2022/09/18 08:19:33;;;;;;;2.50;2.30;;;;;;;12.10;74.07;98652.33;214326;1276;141013;-68
2022/09/18 08:24:35;;;;;;;3.70;1.80;;;;;;;12.23;73.99;98649.73;214256;1277;140567;-66
2022/09/18 08:29:37;;;;;;;2.00;1.60;;;;;;;12.70;73.87;98646.92;213799;1277;141145;-66
2022/09/18 08:34:39;;;;;;;1.70;1.60;;;;;;;13.36;73.67;98639.64;212903;1277;140699;-65
2022/09/18 08:39:45;;;;;;;1.50;1.30;;;;;;;13.74;72.40;98645.23;213251;1276;140939;-65
2022/09/18 08:44:53;;;;;;;2.80;2.60;;;;;;;13.72;71.10;98644.34;213156;1277;140525;-66
2022/09/18 08:50:01;;;;;;;2.00;1.90;;;;;;;13.63;70.47;98640.77;214124;1276;141179;-66
2022/09/18 08:55:23;;;;;;;6.40;2.00;;;;;;;13.55;70.33;98643.94;213627;1277;140656;-66
2022/09/18 09:00:35;;;;;;;1.70;1.60;;;;;;;13.66;70.01;98650.92;215822;1277;141598;-68
2022/09/18 09:05:45;;;;;;;2.40;2.00;;;;;;;14.09;70.38;98649.49;214901;1277;141605;-68
2022/09/18 09:11:07;;;;;;;2.80;1.50;;;;;;;14.24;69.63;98656.36;215000;1276;140463;-65
2022/09/18 09:16:23;;;;;;;2.40;2.30;;;;;;;14.22;69.03;98653.16;213799;1276;140927;-65
2022/09/18 09:21:54;;;;;;;2.60;2.20;;;;;;;14.16;68.67;98654.77;213280;1276;141969;-66
2022/09/18 09:27:01;;;;;;;2.60;2.00;;;;;;;14.02;68.05;98654.98;214078;1276;140874;-70
2022/09/18 09:32:26;;;;;;;2.70;2.60;;;;;;;13.95;68.12;98649.91;214159;1277;156027;-67
2022/09/18 09:37:44;;;;;;;6.20;2.60;;;;;;;13.82;67.91;98652.70;213209;1277;140224;-70
2022/09/18 09:43:25;;;;;;;2.70;2.50;;;;;;;13.70;67.98;98655.40;214324;1277;139897;-69
2022/09/18 09:48:40;;;;;;;2.70;2.50;;;;;;;13.55;67.84;98658.13;213646;1276;140735;-69
2022/09/18 09:53:43;;;;;;;2.20;2.10;;;;;;;13.77;68.42;98660.95;212483;1276;1616061;-69
2022/09/18 09:59:04;;;;;;;2.80;2.60;;;;;;;14.48;68.52;98658.73;213497;1276;140299;-66
2022/09/18 10:04:47;;;;;;;3.40;2.50;;;;;;;14.86;67.60;98662.61;213754;1276;140259;-65
2022/09/18 10:10:00;;;;;;;3.30;2.90;;;;;;;14.82;66.57;98668.79;213597;1277;140594;-65
2022/09/18 10:15:18;;;;;;;3.20;2.80;;;;;;;14.65;66.68;98671.80;213772;1276;140032;-66
2022/09/18 10:20:27;;;;;;;2.90;2.70;;;;;;;14.73;66.41;98678.70;214177;1276;139577;-67
2022/09/18 10:25:40;;;;;;;2.40;2.30;;;;;;;14.61;66.10;98686.23;213644;1276;140253;-67
2022/09/18 10:31:13;;;;;;;3.00;2.70;;;;;;;14.53;66.26;98687.92;212889;1276;139820;-66
2022/09/18 10:36:15;;;;;;;2.40;2.20;;;;;;;14.62;66.33;98687.18;213417;1276;235003;-68
2022/09/18 10:41:31;;;;;;;2.30;2.10;;;;;;;14.74;66.17;98689.32;214721;1276;140006;-66
2022/09/18 10:46:38;;;;;;;2.00;1.90;;;;;;;14.79;66.15;98690.61;214343;1276;140194;-66
2022/09/18 10:51:41;;;;;;;2.10;1.80;;;;;;;14.87;66.01;98690.35;215046;1276;140077;-66
2022/09/18 10:56:44;;;;;;;8.80;1.50;;;;;;;15.04;65.72;98694.52;214839;1276;140521;-65
2022/09/18 11:01:47;;;;;;;1.90;1.30;;;;;;;15.08;65.01;98693.55;215925;1276;139909;-66
2022/09/18 11:06:50;;;;;;;2.30;1.10;;;;;;;15.14;64.96;98693.54;214909;1276;140111;-65
2022/09/18 11:11:53;;;;;;;2.10;1.80;;;;;;;15.09;64.67;98692.57;214386;1276;141129;-67
2022/09/18 11:17:00;;;;;;;3.20;1.30;;;;;;;15.12;64.56;98690.38;214700;1276;140315;-66
2022/09/18 11:22:04;;;;;;;;;;;;;;;15.23;64.46;98694.96;214696;1276;141336;-66
2022/09/18 11:27:44;;;;;;;3.60;2.10;;;;;;;15.28;64.46;98692.70;214516;1276;128638;-65
2022/09/18 11:32:53;;;;;;;3.00;1.00;;;;;;;15.56;64.71;98695.83;212795;1276;139759;-65
2022/09/18 11:38:06;;;;;;;2.00;1.80;;;;;;;15.54;63.86;98693.39;214473;1276;231036;-65
2022/09/18 11:43:33;;;;;;;1.60;1.20;;;;;;;15.29;63.80;98694.55;213478;1276;139367;-65
2022/09/18 11:48:58;;;;;;;;;;;;;;;15.06;63.87;98696.38;213211;1276;140383;-66
2022/09/18 11:54:10;;;;;;;3.50;2.10;;;;;;;14.72;63.93;98697.45;214139;1276;126241;-66
2022/09/18 11:59:57;;;;;;;3.60;1.90;;;;;;;14.46;64.26;98704.77;213970;1276;140308;-66
2022/09/18 12:05:35;;;;;;;3.60;1.80;;;;;;;14.29;64.78;98705.42;213113;1276;142726;-67
2022/09/18 12:11:05;;;;;;;3.00;1.70;;;;;;;14.15;64.89;98712.30;212849;1276;141064;-66
2022/09/18 12:16:50;;;;;;;2.70;2.50;;;;;;;14.02;65.02;98705.36;212847;1276;139704;-67
2022/09/18 12:22:03;;;;;;;3.50;1.60;;;;;;;14.05;65.65;98705.88;213085;1276;139989;-67
2022/09/18 12:27:20;;;;;;;1.90;1.80;;;;;;;14.08;65.69;98706.03;213240;1276;141298;-66
2022/09/18 12:32:46;;;;;;;1.90;1.80;;;;;;;14.15;65.90;98703.30;214521;1276;212774;-67
2022/09/18 12:37:55;;;;;;;2.10;1.90;;;;;;;14.17;66.19;98701.89;214505;1276;142238;-65
2022/09/18 12:43:28;;;;;;;2.20;2.00;;;;;;;14.18;65.96;98703.38;215319;1276;140504;-65
2022/09/18 12:49:03;;;;;;;4.30;2.30;;;;;;;14.39;66.62;98701.09;213301;1276;140709;-65
2022/09/18 12:54:27;;;;;;;1.90;1.80;;;;;;;14.57;66.45;98699.69;215245;1276;139920;-64
2022/09/18 12:59:41;;;;;;;3.00;2.00;;;;;;;14.65;66.20;98704.26;215940;1276;139782;-65
2022/09/18 13:05:15;;;;;;;2.70;2.20;;;;;;;14.89;66.42;98704.11;215893;1274;139399;-65
2022/09/18 13:10:28;;;;;;;4.20;2.20;;;;;;;15.21;65.94;98695.80;215528;1276;141083;-65
2022/09/18 13:15:35;;;;;;;2.40;2.30;;;;;;;15.48;65.54;98698.73;215556;1273;139654;-64
2022/09/18 13:20:41;;;;;;;2.20;2.00;;;;;;;15.67;65.08;98696.58;214350;1275;139239;-65
2022/09/18 13:25:48;;;;;;;4.00;1.80;;;;;;;15.82;64.91;98690.80;213911;1276;141963;-64
2022/09/18 13:31:15;;;;;;;1.80;1.70;;;;;;;15.95;64.73;98691.87;213602;1276;140022;-65
2022/09/18 13:36:27;;;;;;;2.40;2.20;;;;;;;15.95;64.12;98696.45;213683;1276;140051;-64
2022/09/18 13:41:44;;;;;;;1.70;1.60;;;;;;;15.80;64.02;98699.27;214450;1275;139579;-64
2022/09/18 13:46:48;;;;;;;1.90;1.80;;;;;;;15.60;63.73;98704.73;213441;1277;139746;-65
2022/09/18 13:51:51;;;;;;;1.50;1.40;;;;;;;15.30;63.92;98706.52;214185;1276;143162;-65
2022/09/18 13:57:13;;;;;;;2.20;1.80;;;;;;;15.17;64.11;98702.89;213346;1276;139883;-66
2022/09/18 14:02:48;;;;;;;2.20;2.10;;;;;;;15.22;64.35;98699.98;213135;1276;140328;-66
2022/09/18 14:07:54;;;;;;;2.30;1.70;;;;;;;15.28;64.32;98690.02;213336;1275;140451;-65
2022/09/18 14:13:17;;;;;;;3.60;2.40;;;;;;;15.24;64.49;98693.73;213408;1276;141534;-65
2022/09/18 14:18:39;;;;;;;1.70;1.60;;;;;;;15.05;64.42;98696.81;213526;1276;141734;-65
2022/09/18 14:23:44;;;;;;;1.10;1.00;;;;;;;14.65;64.11;98733.52;212860;1276;139840;-65
2022/09/18 14:28:47;;;;;;;1.20;0.80;;;;;;;13.81;64.53;98747.95;213781;1276;139995;-67
2022/09/18 14:33:50;;;;;;;1.60;1.50;;;;;;;13.19;65.62;98746.64;213615;1276;139904;-63
2022/09/18 14:38:55;;;;;;;1.80;1.30;;;;;;;12.86;67.13;98755.96;214201;1276;140693;-65
2022/09/18 14:44:07;;;;;;;1.90;1.80;;;;;;;12.54;67.62;98757.61;215165;1276;140186;-66
2022/09/18 14:49:25;;;;;;;2.20;1.80;;;;;;;12.27;68.69;98761.94;215769;1276;140039;-68
2022/09/18 14:54:29;;;;;;;1.60;1.50;;;;;;;12.02;69.61;98764.63;215582;1276;140061;-68
2022/09/18 14:59:32;;;;;;;1.80;1.20;;;;;;;11.88;70.05;98765.92;215827;1276;140213;-65
2022/09/18 15:04:40;;;;;;;3.00;2.00;;;;;;;11.82;70.82;98770.02;215117;1276;141420;-66
2022/09/18 15:09:51;;;;;;;3.20;1.90;;;;;;;11.79;71.48;98772.05;214931;1276;141642;-67
2022/09/18 15:14:54;;;;;;;2.10;1.70;;;;;;;11.83;71.72;98772.48;214694;1276;142124;-71
2022/09/18 15:20:14;;;;;;;6.30;2.70;;;;;;;11.98;72.46;98768.80;213273;1276;140862;-65
2022/09/18 15:25:32;;;;;;;4.10;2.00;;;;;;;12.28;72.71;98762.84;214432;1276;141338;-66
2022/09/18 15:30:39;;;;;;;2.70;1.80;;;;;;;12.50;72.85;98759.08;213732;1276;140340;-65
2022/09/18 15:35:43;;;;;;;5.50;2.70;;;;;;;12.53;72.66;98758.04;214211;1276;139318;-66
2022/09/18 15:40:46;;;;;;;8.60;2.50;;;;;;;12.50;72.70;98755.27;214652;1276;140872;-68
2022/09/18 15:46:31;;;;;;;6.60;3.50;;;;;;;12.51;72.80;98752.88;213903;1276;140446;-66
2022/09/18 15:51:34;;;;;;;34.70;18.80;;;;;;;12.46;73.05;98757.21;211854;1282;140814;-65
2022/09/18 15:56:58;;;;;;;7.10;4.10;;;;;;;12.36;73.11;98756.47;212637;1276;140191;-65
2022/09/18 16:02:38;;;;;;;7.00;5.20;;;;;;;12.27;73.49;98753.07;212521;1276;139865;-67
2022/09/18 16:07:57;;;;;;;3.40;3.10;;;;;;;12.18;73.64;98754.05;212766;1277;140715;-66
2022/09/18 16:13:05;;;;;;;6.20;4.80;;;;;;;12.08;73.76;98752.55;213146;1276;140126;-72
2022/09/18 16:18:30;;;;;;;4.90;3.20;;;;;;;11.98;74.23;98751.80;213987;1276;140405;-67
2022/09/18 16:23:35;;;;;;;6.10;3.30;;;;;;;11.92;74.66;98755.98;214177;1276;140660;-68
2022/09/18 16:28:49;;;;;;;7.30;3.10;;;;;;;11.92;74.77;98760.73;213857;1276;140896;-66
2022/09/18 16:34:04;;;;;;;3.70;2.40;;;;;;;11.89;74.98;98757.96;213848;1276;141716;-66
2022/09/18 16:39:14;;;;;;;4.90;2.80;;;;;;;11.81;75.12;98757.73;212792;1276;141723;-66
2022/09/18 16:44:17;;;;;;;4.60;3.30;;;;;;;11.78;75.55;98760.60;213693;1276;140343;-66
2022/09/18 16:49:27;;;;;;;8.60;2.60;;;;;;;11.73;75.60;98763.89;213660;1275;140093;-67
2022/09/18 16:54:31;;;;;;;4.90;2.80;;;;;;;11.65;75.79;98764.67;213280;1276;141193;-64
2022/09/18 16:59:40;;;;;;;2.50;1.80;;;;;;;11.61;75.91;98765.90;215853;1276;140136;-68
2022/09/18 17:04:43;;;;;;;8.20;3.30;;;;;;;11.47;76.10;98768.88;215179;1276;140084;-67
2022/09/18 17:09:47;;;;;;;8.80;3.20;;;;;;;11.44;76.50;98769.66;215455;1276;139726;-67
2022/09/18 17:14:51;;;;;;;6.50;2.90;;;;;;;11.40;76.63;98768.48;215804;1276;141205;-67
2022/09/18 17:19:55;;;;;;;6.70;3.80;;;;;;;11.38;76.72;98769.11;215693;1276;140285;-66
2022/09/18 17:25:01;;;;;;;5.10;4.50;;;;;;;11.35;76.91;98770.70;213597;1276;141473;-66
2022/09/18 17:30:05;;;;;;;5.20;2.70;;;;;;;11.37;77.06;98774.07;214233;1276;140653;-66
2022/09/18 17:35:09;;;;;;;7.70;3.50;;;;;;;11.40;77.18;98777.39;213643;1276;141928;-67
2022/09/18 17:40:11;;;;;;;9.20;4.80;;;;;;;11.37;77.12;98778.55;212827;1276;140748;-70
2022/09/18 17:45:15;;;;;;;6.80;5.20;;;;;;;11.36;77.36;98784.63;214265;1276;140638;-67
2022/09/18 17:50:20;;;;;;;10.80;3.90;;;;;;;11.35;77.48;98785.11;213926;1276;141031;-67
2022/09/18 17:55:24;;;;;;;6.80;4.50;;;;;;;11.30;77.39;98788.67;213056;1276;141547;-66
2022/09/18 18:00:31;;;;;;;8.30;4.20;;;;;;;11.26;77.49;98785.52;214362;1276;141077;-65
2022/09/18 18:05:34;;;;;;;9.00;3.90;;;;;;;11.18;77.60;98786.77;212904;1276;144453;-64
2022/09/18 18:10:38;;;;;;;6.60;3.80;;;;;;;11.11;77.82;98793.99;212823;1276;142119;-68
2022/09/18 18:15:44;;;;;;;7.40;4.80;;;;;;;11.03;77.64;98794.55;213108;1276;162609;-68
2022/09/18 18:20:51;;;;;;;5.60;4.50;;;;;;;10.99;77.65;98792.90;213982;1276;141300;-67
2022/09/18 18:26:00;;;;;;;7.40;3.60;;;;;;;10.95;77.82;98795.17;213808;1276;141920;-68
2022/09/18 18:31:06;;;;;;;12.00;9.60;;;;;;;10.91;77.61;98797.17;213080;1276;140626;-68
2022/09/18 18:36:13;;;;;;;12.60;8.10;;;;;;;10.77;77.66;98798.53;214529;1276;142735;-69
2022/09/18 18:41:18;;;;;;;15.70;7.00;;;;;;;10.66;77.87;98792.25;215696;1277;142579;-69
2022/09/18 18:46:26;;;;;;;9.70;8.20;;;;;;;10.61;77.67;98791.25;215514;1277;140945;-69
2022/09/18 18:51:46;;;;;;;22.20;7.60;;;;;;;10.59;77.77;98796.67;215177;1277;142626;-68
2022/09/18 18:56:50;;;;;;;8.20;5.00;;;;;;;10.56;77.61;98790.80;215535;1278;140489;-68
2022/09/18 19:01:55;;;;;;;6.70;3.10;;;;;;;10.53;77.43;98794.02;215710;1276;140914;-70
2022/09/18 19:06:59;;;;;;;6.90;5.00;;;;;;;10.42;77.26;98790.80;215465;1276;139377;-68
2022/09/18 19:12:02;;;;;;;6.80;3.90;;;;;;;10.35;77.16;98786.78;214470;1276;140529;-67
2022/09/18 19:17:04;;;;;;;6.10;2.30;;;;;;;10.26;76.82;98788.57;215381;1276;140350;-70
2022/09/18 19:22:16;;;;;;;11.70;3.50;;;;;;;10.11;76.86;98790.61;214800;1276;141448;-70
2022/09/18 19:27:18;;;;;;;4.40;2.70;;;;;;;10.00;77.01;98789.88;214855;1276;140946;-68
2022/09/18 19:32:20;;;;;;;7.60;2.60;;;;;;;9.93;76.90;98788.96;213940;1276;141137;-69
2022/09/18 19:37:24;;;;;;;4.40;2.20;;;;;;;9.81;76.91;98791.36;213950;1276;140303;-65
2022/09/18 19:42:28;;;;;;;3.60;2.30;;;;;;;9.64;76.94;98788.82;213371;1276;141333;-69
2022/09/18 19:47:41;;;;;;;8.40;3.20;;;;;;;9.54;77.19;98785.52;213281;1276;139715;-67
2022/09/18 19:52:44;;;;;;;6.00;2.80;;;;;;;9.51;77.25;98791.98;213769;1276;140881;-66
2022/09/18 19:57:55;;;;;;;4.30;3.10;;;;;;;9.40;77.35;98794.11;213015;1276;141126;-69
2022/09/18 20:03:00;;;;;;;10.90;3.50;;;;;;;9.31;77.64;98790.23;213023;1276;141658;-69
2022/09/18 20:08:05;;;;;;;5.60;2.80;;;;;;;9.29;77.78;98793.23;213024;1276;164771;-68
2022/09/18 20:13:10;;;;;;;7.40;2.50;;;;;;;9.19;77.36;98795.94;213581;1276;141680;-66
2022/09/18 20:18:13;;;;;;;3.80;2.00;;;;;;;9.06;77.48;98796.33;213061;1276;141523;-66
2022/09/18 20:23:15;;;;;;;7.10;2.30;;;;;;;8.91;77.39;98800.27;214201;1276;141937;-66
2022/09/18 20:28:20;;;;;;;6.40;2.40;;;;;;;8.86;77.66;98797.02;214067;1276;141145;-66
2022/09/18 20:33:23;;;;;;;3.40;2.20;;;;;;;8.83;77.74;98798.27;214402;1276;140885;-67
2022/09/18 20:38:32;;;;;;;7.20;3.30;;;;;;;8.79;77.76;98804.95;215694;1276;139930;-65
2022/09/18 20:43:37;;;;;;;7.70;3.20;;;;;;;8.77;78.06;98803.66;215827;1276;139812;-68
2022/09/18 20:48:53;;;;;;;5.00;3.00;;;;;;;8.79;77.95;98806.25;215838;1276;140951;-69
2022/09/18 20:53:57;;;;;;;8.40;3.20;;;;;;;8.78;77.77;98805.48;215586;1275;141540;-66
2022/09/18 20:59:06;;;;;;;5.60;2.80;;;;;;;8.77;77.59;98805.05;213211;1276;140311;-65
2022/09/18 21:04:18;;;;;;;3.60;2.70;;;;;;;8.68;77.57;98805.65;215421;1276;140935;-66
2022/09/18 21:09:25;;;;;;;5.70;2.50;;;;;;;8.57;77.81;98805.13;213128;1276;140009;-66
2022/09/18 21:14:28;;;;;;;7.40;2.90;;;;;;;8.45;77.74;98804.95;214324;1276;140106;-66
2022/09/18 21:19:31;;;;;;;5.90;2.40;;;;;;;8.33;77.93;98805.09;213614;1276;141407;-65
2022/09/18 21:24:34;;;;;;;8.30;5.50;;;;;;;8.28;78.15;98807.39;213391;1276;139496;-66
2022/09/18 21:29:39;;;;;;;5.90;2.40;;;;;;;8.24;78.03;98805.36;213825;1276;139109;-65
2022/09/18 21:34:43;;;;;;;6.90;2.70;;;;;;;8.22;78.16;98802.35;213117;1278;139352;-66
2022/09/18 21:39:46;;;;;;;7.10;3.10;;;;;;;8.20;78.52;98801.74;214202;1276;140600;-67
2022/09/18 21:44:49;;;;;;;5.10;3.10;;;;;;;8.17;78.15;98804.19;214134;1276;140548;-66
2022/09/18 21:49:52;;;;;;;3.30;2.70;;;;;;;8.14;78.13;98806.58;213578;1276;140521;-67
2022/09/18 21:54:55;;;;;;;3.80;2.50;;;;;;;8.09;78.03;98810.11;212685;1276;2046379;-65
2022/09/18 21:59:58;;;;;;;5.30;2.40;;;;;;;8.00;78.28;98812.77;213735;1276;140333;-66
2022/09/18 22:05:01;;;;;;;5.50;2.80;;;;;;;7.97;78.31;98815.48;214139;1276;139513;-66
2022/09/18 22:10:05;;;;;;;8.10;2.30;;;;;;;7.91;78.46;98813.75;213122;1276;141680;-64
2022/09/18 22:15:09;;;;;;;3.90;2.40;;;;;;;7.87;77.95;98809.43;213566;1276;141638;-65
2022/09/18 22:20:11;;;;;;;6.20;3.10;;;;;;;7.79;78.19;98810.84;213021;1276;141115;-66
2022/09/18 22:25:14;;;;;;;6.20;2.70;;;;;;;7.77;78.84;98806.06;214523;1276;140640;-67
2022/09/18 22:30:19;;;;;;;3.80;2.50;;;;;;;7.75;78.30;98810.87;214893;1275;143501;-68
2022/09/18 22:35:22;;;;;;;3.00;2.30;;;;;;;7.69;78.60;98809.65;215806;1276;141053;-69
2022/09/18 22:40:25;;;;;;;6.00;3.10;;;;;;;7.66;78.54;98810.05;215327;1276;140744;-68
2022/09/18 22:45:28;;;;;;;8.20;2.90;;;;;;;7.66;78.55;98807.73;215741;1276;139725;-67
2022/09/18 22:50:33;;;;;;;5.30;3.00;;;;;;;7.65;78.94;98809.98;214140;1276;141209;-65
2022/09/18 22:55:35;;;;;;;4.10;2.30;;;;;;;7.67;79.19;98801.00;214729;1276;141958;-65
2022/09/18 23:00:38;;;;;;;9.40;2.40;;;;;;;7.66;78.77;98802.10;214882;1276;140976;-64
2022/09/18 23:05:41;;;;;;;3.10;1.60;;;;;;;7.63;79.09;98813.41;214424;1276;140752;-64
2022/09/18 23:10:44;;;;;;;4.10;2.10;;;;;;;7.60;79.48;98812.98;213872;1276;141788;-65
2022/09/18 23:15:48;;;;;;;3.00;1.80;;;;;;;7.63;79.27;98804.87;214289;1276;140974;-65
2022/09/18 23:20:51;;;;;;;5.60;2.40;;;;;;;7.63;79.21;98800.52;213592;1276;143153;-65
2022/09/18 23:26:00;;;;;;;4.30;2.30;;;;;;;7.64;79.03;98801.55;213964;1276;141334;-66
2022/09/18 23:31:06;;;;;;;;;;;;;;;7.63;79.50;98804.87;213840;1276;141370;-66
2022/09/18 23:36:13;;;;;;;2.80;1.90;;;;;;;7.56;79.56;98798.86;213785;1276;127796;-66
2022/09/18 23:41:16;;;;;;;3.50;2.40;;;;;;;7.46;79.43;98797.77;213896;1276;141079;-67
2022/09/18 23:46:21;;;;;;;2.70;2.00;;;;;;;7.42;79.83;98800.76;213344;1276;139873;-67